createdAt,value
2018-12-11T00:03:39.524Z,9.43
2018-12-11T00:08:44.341Z,10.43
2018-12-11T00:13:51.268Z,9.93
2018-12-11T00:19:01.142Z,10.30
2018-12-11T00:24:06.417Z,10.73
2018-12-11T00:29:13.265Z,10.17
2018-12-11T00:34:21.033Z,10.50
2018-12-11T00:39:26.190Z,9.27
2018-12-11T00:44:33.854Z,10.00
2018-12-11T00:49:39.618Z,10.37
2018-12-11T00:54:44.442Z,10.57
2018-12-11T00:59:52.176Z,11.40
2018-12-11T01:05:14.991Z,10.47
2018-12-11T01:10:25.039Z,10.40
2018-12-11T01:15:31.398Z,10.80
2018-12-11T01:29:35.366Z,10.37
2018-12-11T01:34:58.573Z,10.73
2018-12-11T01:40:05.225Z,9.70
2018-12-11T01:45:14.473Z,9.57
2018-12-11T01:50:20.371Z,10.80
2018-12-11T01:55:25.301Z,10.50
2018-12-11T02:00:30.409Z,9.17
2018-12-11T02:05:36.235Z,9.67
2018-12-11T02:10:42.974Z,10.43
2018-12-11T02:15:49.135Z,9.57
2018-12-11T02:20:53.999Z,9.60
2018-12-11T02:25:59.079Z,9.70
2018-12-11T02:31:03.989Z,9.53
2018-12-11T02:36:10.105Z,9.00
2018-12-11T02:41:15.003Z,9.23
2018-12-11T02:46:21.488Z,9.10
2018-12-11T02:51:27.956Z,8.50
2018-12-11T02:56:33.175Z,7.80
2018-12-11T03:01:39.732Z,8.10
2018-12-11T03:06:44.625Z,8.10
2018-12-11T03:11:50.786Z,9.30
2018-12-11T03:16:55.759Z,8.80
2018-12-11T03:22:02.036Z,8.80
2018-12-11T03:27:07.800Z,8.80
2018-12-11T03:32:12.824Z,9.63
2018-12-11T03:37:19.839Z,9.80
2018-12-11T03:42:24.854Z,8.70
2018-12-11T03:47:31.254Z,10.80
2018-12-11T03:52:36.339Z,9.57
2018-12-11T03:57:41.987Z,9.77
2018-12-11T04:02:47.072Z,9.10
2018-12-11T04:07:52.401Z,8.87
2018-12-11T04:12:58.460Z,9.50
2018-12-11T04:18:03.498Z,9.20
2018-12-11T04:23:08.328Z,10.70
2018-12-11T04:28:13.255Z,11.13
2018-12-11T04:33:19.756Z,9.63
2018-12-11T04:38:26.397Z,11.33
2018-12-11T04:43:31.888Z,12.20
2018-12-11T04:48:38.393Z,12.17
2018-12-11T04:53:43.428Z,11.40
2018-12-11T04:58:49.486Z,10.83
2018-12-11T05:03:54.512Z,10.17
2018-12-11T05:09:00.461Z,9.43
2018-12-11T05:14:05.981Z,8.27
2018-12-11T05:19:12.887Z,8.63
2018-12-11T05:24:19.125Z,8.80
2018-12-11T05:29:24.037Z,9.47
2018-12-11T05:34:29.243Z,9.93
2018-12-11T05:39:34.156Z,10.13
2018-12-11T05:44:40.507Z,10.90
2018-12-11T05:49:45.507Z,9.27
2018-12-11T05:54:51.449Z,9.90
2018-12-11T05:59:58.335Z,9.63
2018-12-11T06:05:03.294Z,9.40
2018-12-11T06:10:10.170Z,9.57
2018-12-11T06:15:15.160Z,8.37
2018-12-11T06:20:21.121Z,8.87
2018-12-11T06:25:26.188Z,10.53
2018-12-11T06:30:32.939Z,9.57
2018-12-11T06:35:40.102Z,9.07
2018-12-11T06:40:45.098Z,17.87
2018-12-11T06:45:50.878Z,9.13
2018-12-11T06:50:55.822Z,10.83
2018-12-11T06:56:02.166Z,10.07
2018-12-11T07:01:08.171Z,9.50
2018-12-11T07:06:13.176Z,10.20
2018-12-11T07:11:19.155Z,9.90
2018-12-11T07:16:25.553Z,11.77
2018-12-11T07:21:32.591Z,16.33
2018-12-11T07:26:38.813Z,13.73
2018-12-11T07:31:44.177Z,22.93
2018-12-11T07:36:50.208Z,21.50
2018-12-11T07:41:55.886Z,21.90
2018-12-11T07:47:02.065Z,19.83
2018-12-11T07:52:07.962Z,20.57
2018-12-11T07:57:15.236Z,33.87
2018-12-11T08:02:22.231Z,13.67
2018-12-11T08:07:29.423Z,16.03
2018-12-11T08:12:34.810Z,17.37
2018-12-11T08:17:41.657Z,17.67
2018-12-11T08:22:48.779Z,14.87
2018-12-11T08:27:53.731Z,19.07
2018-12-11T08:32:59.222Z,16.63
2018-12-11T08:38:05.357Z,15.57
2018-12-11T08:43:12.458Z,17.10
2018-12-11T08:48:18.054Z,17.90
2018-12-11T08:53:23.779Z,19.83
2018-12-11T08:58:29.737Z,22.27
2018-12-11T09:03:34.849Z,17.60
2018-12-11T09:08:41.618Z,20.80
2018-12-11T09:13:48.491Z,16.83
2018-12-11T09:18:53.387Z,14.33
2018-12-11T09:23:59.770Z,26.33
2018-12-11T09:29:04.726Z,16.03
2018-12-11T09:34:10.481Z,13.30
2018-12-11T09:39:15.931Z,11.13
2018-12-11T09:44:22.181Z,11.40
2018-12-11T09:49:29.918Z,10.10
2018-12-11T09:54:35.055Z,9.87
2018-12-11T09:59:41.345Z,7.90
2018-12-11T10:04:47.096Z,8.90
2018-12-11T10:09:52.865Z,7.53
2018-12-11T10:14:59.132Z,8.70
2018-12-11T10:20:05.657Z,8.23
2018-12-11T10:25:12.007Z,7.37
2018-12-11T10:30:18.350Z,9.10
2018-12-11T10:35:25.098Z,7.03
2018-12-11T10:40:30.365Z,6.83
2018-12-11T10:45:35.309Z,7.27
2018-12-11T10:50:41.478Z,7.73
2018-12-11T10:55:47.835Z,8.20
2018-12-11T11:00:58.068Z,7.87
2018-12-11T11:06:03.208Z,8.43
2018-12-11T11:11:09.619Z,7.10
2018-12-11T11:16:15.499Z,6.97
2018-12-11T11:21:21.971Z,8.00
2018-12-11T11:26:27.885Z,9.20
2018-12-11T11:31:33.193Z,7.43
2018-12-11T11:36:39.966Z,6.73
2018-12-11T11:41:44.925Z,8.47
2018-12-11T11:46:49.974Z,7.20
2018-12-11T11:51:54.886Z,8.07
2018-12-11T11:57:00.398Z,7.37
2018-12-11T12:02:05.654Z,8.33
2018-12-11T12:07:12.051Z,7.83
2018-12-11T12:12:18.526Z,8.20
2018-12-11T12:17:23.583Z,11.10
2018-12-11T12:22:29.917Z,6.87
2018-12-11T12:27:34.916Z,7.50
2018-12-11T12:32:41.086Z,7.00
2018-12-11T12:37:47.651Z,8.20
2018-12-11T12:42:53.061Z,7.63
2018-12-11T12:47:59.871Z,8.30
2018-12-11T12:53:05.496Z,7.33
2018-12-11T12:58:10.910Z,7.80
2018-12-11T13:03:15.886Z,6.17
2018-12-11T13:08:22.142Z,7.53
2018-12-11T13:13:27.191Z,7.00
2018-12-11T13:18:32.353Z,6.60
2018-12-11T13:23:38.265Z,10.10
2018-12-11T13:28:44.805Z,7.73
2018-12-11T13:33:51.825Z,7.30
2018-12-11T13:38:58.576Z,8.90
2018-12-11T13:44:05.615Z,8.87
2018-12-11T13:49:12.333Z,9.03
2018-12-11T13:54:18.495Z,8.93
2018-12-11T13:59:23.431Z,9.90
2018-12-11T14:04:29.840Z,10.03
2018-12-11T14:09:38.789Z,12.13
2018-12-11T14:14:43.720Z,10.77
2018-12-11T14:19:49.849Z,11.70
2018-12-11T14:24:55.666Z,11.97
2018-12-11T14:30:02.317Z,11.20
2018-12-11T14:35:08.167Z,12.00
2018-12-11T14:40:15.157Z,12.60
2018-12-11T14:45:21.220Z,12.83
2018-12-11T14:50:29.433Z,11.77
2018-12-11T14:55:34.294Z,11.03
2018-12-11T15:00:41.249Z,12.80
2018-12-11T15:05:46.178Z,11.40
2018-12-11T15:10:52.940Z,10.63
2018-12-11T15:15:59.750Z,9.77
2018-12-11T15:21:04.661Z,12.40
2018-12-11T15:26:10.499Z,11.97
2018-12-11T15:31:15.535Z,11.63
2018-12-11T15:36:21.559Z,11.17
2018-12-11T15:41:29.541Z,16.63
2018-12-11T15:46:34.674Z,12.80
2018-12-11T15:51:39.666Z,11.90
2018-12-11T15:56:45.023Z,10.33
2018-12-11T16:01:51.342Z,14.23
2018-12-11T16:06:58.185Z,28.47
2018-12-11T16:12:03.240Z,21.60
2018-12-11T16:17:11.391Z,30.63
2018-12-11T16:22:17.751Z,30.37
2018-12-11T16:27:23.122Z,31.07
2018-12-11T16:32:32.121Z,34.07
2018-12-11T16:37:37.842Z,36.33
2018-12-11T16:42:47.587Z,29.07
2018-12-11T16:47:55.110Z,29.80
2018-12-11T16:53:01.423Z,41.17
2018-12-11T16:58:24.978Z,36.77
2018-12-11T17:03:31.232Z,37.03
2018-12-11T17:08:36.319Z,36.00
2018-12-11T17:13:43.269Z,43.00
2018-12-11T17:18:50.393Z,46.90
2018-12-11T17:23:56.288Z,39.20
2018-12-11T17:29:03.294Z,37.83
2018-12-11T17:34:09.818Z,34.37
2018-12-11T17:39:14.955Z,35.80
2018-12-11T17:44:21.347Z,34.53
2018-12-11T17:49:27.719Z,32.00
2018-12-11T17:54:32.753Z,29.87
2018-12-11T17:59:38.977Z,31.50
2018-12-11T18:04:43.887Z,30.03
2018-12-11T18:09:49.866Z,31.20
2018-12-11T18:14:55.656Z,28.00
2018-12-11T18:20:02.399Z,35.37
2018-12-11T18:25:08.306Z,28.43
2018-12-11T18:30:13.371Z,26.10
2018-12-11T18:35:20.324Z,23.00
2018-12-11T18:40:25.462Z,20.47
2018-12-11T18:45:31.280Z,21.60
2018-12-11T18:50:36.295Z,24.43
2018-12-11T18:55:43.193Z,20.27
2018-12-11T19:00:49.836Z,20.70
2018-12-11T19:05:55.179Z,21.93
2018-12-11T19:11:01.150Z,26.17
2018-12-11T19:16:07.050Z,29.13
2018-12-11T19:21:12.924Z,21.10
2018-12-11T19:26:19.383Z,22.07
2018-12-11T19:31:25.830Z,15.00
2018-12-11T19:36:32.113Z,11.03
2018-12-11T19:41:38.471Z,12.40
2018-12-11T19:46:45.059Z,10.33
2018-12-11T19:51:50.569Z,11.37
2018-12-11T19:56:55.483Z,11.27
2018-12-11T20:02:02.299Z,13.23
2018-12-11T20:07:08.442Z,12.60
2018-12-11T20:12:13.450Z,12.87
2018-12-11T20:17:19.948Z,10.70
2018-12-11T20:22:25.360Z,11.60
2018-12-11T20:27:31.362Z,13.00
2018-12-11T20:32:37.075Z,11.63
2018-12-11T20:37:42.195Z,11.33
2018-12-11T20:42:47.839Z,11.10
2018-12-11T20:47:53.030Z,12.97
2018-12-11T20:53:00.044Z,14.73
2018-12-11T20:58:05.133Z,13.37
2018-12-11T21:03:11.767Z,13.50
2018-12-11T21:08:19.346Z,15.63
2018-12-11T21:13:25.160Z,14.33
2018-12-11T21:18:31.610Z,14.40
2018-12-11T21:23:40.459Z,15.60
2018-12-11T21:28:45.659Z,25.63
2018-12-11T21:33:54.149Z,59.07
2018-12-11T21:39:01.120Z,19.87
2018-12-11T21:44:06.125Z,16.43
2018-12-11T21:49:13.562Z,19.37
2018-12-11T21:54:26.841Z,15.47
2018-12-11T21:59:32.078Z,17.43
2018-12-11T22:04:37.631Z,18.03
2018-12-11T22:09:43.975Z,14.73
2018-12-11T22:14:51.310Z,14.87
2018-12-11T22:19:56.637Z,16.43
2018-12-11T22:25:01.996Z,15.70
2018-12-11T22:30:08.599Z,16.43
2018-12-11T22:35:15.032Z,16.80
2018-12-11T22:40:21.272Z,17.60
2018-12-11T22:45:26.074Z,17.47
2018-12-11T22:50:32.539Z,18.23
2018-12-11T22:55:38.531Z,17.50
2018-12-11T23:00:45.718Z,18.93
2018-12-11T23:05:52.641Z,19.37
2018-12-11T23:10:59.646Z,19.33
2018-12-11T23:16:04.876Z,21.43
2018-12-11T23:21:11.119Z,20.47
2018-12-11T23:26:16.154Z,20.03
2018-12-11T23:31:23.565Z,21.23
2018-12-11T23:36:29.750Z,21.27
2018-12-11T23:41:34.745Z,20.47
2018-12-11T23:46:40.583Z,19.70
2018-12-11T23:51:45.604Z,18.47
2018-12-11T23:56:50.871Z,17.43
